Wednesday, September 19, 2018, 2:41 PM EDT
Back to Local

KPHF, Williamsburg International Airport

Location: Newport News, VA, United States Lat: 37.133
Local Time: 2:41 PM EDT (18:41 GMT) Lon: -76.5
Time Zone: US/Eastern Elev: 42 ft

Show me the last for .
Show Decoded

2018-09-19 13:54 METAR KPHF 191754Z 34005KT 10SM SCT038 29/21 A2992 RMK AO2 SLP131 T02940211
                 10294 20233 58001 =
2018-09-19 12:54 METAR KPHF 191654Z 33010KT 10SM BKN035 BKN044 28/21 A2993 RMK AO2 SLP134
                 T02830206 =
2018-09-19 11:54 METAR KPHF 191554Z 35006KT 10SM FEW028 28/21 A2993 RMK AO2 SLP133 T02830211 =
2018-09-19 10:54 METAR KPHF 191454Z 02008KT 10SM CLR 28/22 A2992 RMK AO2 SLP131 T02780217 53013 =
2018-09-19 09:54 METAR KPHF 191354Z 34005KT 10SM CLR 26/21 A2991 RMK AO2 SLP128 T02610206 =
2018-09-19 08:54 METAR KPHF 191254Z 34008KT 10SM CLR 25/21 A2989 RMK AO2 SLP121 T02500206 =
2018-09-19 07:54 METAR KPHF 191154Z 35004KT 10SM CLR 23/20 A2988 RMK AO2 SLP118 70004 T02280200
                 10233 20211 53014 =
2018-09-19 06:54 METAR KPHF 191054Z 33005KT 10SM CLR 21/19 A2986 RMK AO2 SLP111 T02110189 =
2018-09-19 05:54 METAR KPHF 190954Z 35005KT 10SM CLR 22/19 A2986 RMK AO2 SLP110 T02220194 =
2018-09-19 04:54 METAR KPHF 190854Z AUTO 35006KT 10SM CLR 22/19 A2984 RMK AO2 SLP105 T02220194
                 52006 =
2018-09-19 03:54 METAR KPHF 190754Z AUTO 34007KT 10SM FEW065 23/19 A2984 RMK AO2 SLP102 T02280194
                 =
2018-09-19 02:54 METAR KPHF 190654Z AUTO 36005KT 10SM OVC065 23/20 A2983 RMK AO2 SLP102 T02330200
                 =
2018-09-19 01:54 METAR KPHF 190554Z AUTO 34004KT 10SM SCT060 23/21 A2983 RMK AO2 SLP099 T02280206
                 10239 20228 55001 =
2018-09-19 00:54 METAR KPHF 190454Z AUTO 31006KT 10SM BKN070 23/22 A2982 RMK AO2 SLP098 T02330217
                 403060228 =
2018-09-18 23:54 METAR KPHF 190354Z AUTO 30005KT 10SM SCT060 23/22 A2983 RMK AO2 SLP099 T02330222
                 =
2018-09-18 22:54 METAR KPHF 190254Z AUTO 29004KT 10SM SCT050 BKN060 OVC080 23/22 A2983 RMK AO2
                 SLP101 T02330217 51012 =
2018-09-18 21:54 METAR KPHF 190154Z 32003KT 10SM OVC070 23/21 A2983 RMK AO2 SLP100 T02280206 =
2018-09-18 20:54 METAR KPHF 190054Z 36011KT 10SM FEW017 BKN048 OVC060 23/21 A2982 RMK AO2 SLP096
                 T02330211 =
2018-09-18 19:54 METAR KPHF 182354Z 33009KT 10SM SCT011 BKN030 OVC040 23/22 A2979 RMK AO2 RAE54
                 SLP088 P0000 60004 T02330222 10294 20233 53013 =
2018-09-18 19:45 METAR KPHF 182345Z 33008KT 9SM -RA FEW009 BKN016 OVC040 23/22 A2979 RMK AO2
                 P0000 T02330222 =
2018-09-18 19:12 METAR KPHF 182312Z 33009KT 10SM -RA BKN012 BKN016 OVC055 24/23 A2978 RMK AO2
                 P0000 T02440228 =
2018-09-18 18:54 METAR KPHF 182254Z 33008KT 10SM -RA SCT014 BKN029 OVC050 24/23 A2978 RMK AO2
                 RAE01B19 SLP083 P0000 T02440233 =
2018-09-18 18:30 METAR KPHF 182230Z 28006KT 10SM -RA FEW018 BKN024 OVC045 24/23 A2977 RMK AO2
                 RAE01B19 P0000 T02440228 =
2018-09-18 18:01 METAR KPHF 182201Z 24006KT 10SM BKN038 OVC045 24/23 A2977 RMK AO2 RAE01 P0000
                 T02440228 =
2018-09-18 17:54 METAR KPHF 182154Z 24007KT 3SM -RA BR BKN011 BKN044 OVC060 24/23 A2977 RMK AO2
                 RAB20 SLP078 P0004 T02440228 =
2018-09-18 17:40 METAR KPHF 182140Z 27007KT 3SM RA BR BKN011 BKN044 OVC060 24/23 A2977 RMK AO2
                 RAB20 P0002 T02440228 =
2018-09-18 16:54 METAR KPHF 182054Z 25011KT 10SM FEW050 BKN075 28/21 A2975 RMK AO2 SLP075 60000
                 T02780211 55006 =
2018-09-18 15:54 METAR KPHF 181954Z 24009KT 10SM FEW035 SCT055 BKN075 28/22 A2975 RMK AO2 RAE12
                 SLP074 P0000 T02830222 =
2018-09-18 14:54 METAR KPHF 181854Z 25012KT 10SM -RA BKN038 BKN046 OVC080 28/22 A2976 RMK AO2
                 RAB17E26B54 SLP078 P0000 T02830217 =

Support USWX by starting your Amazon purchase here.